Time;durP1;ratioP1;P1;durP2;ratioP2;P2;SDS_P1;SDS_P2;PMS_P1;PMS_P2;Temp;Humidity;BMP_temperature;BMP_pressure;BME280_temperature;BME280_humidity;BME280_pressure;Samples;Min_cycle;Max_cycle;Signal;HPM_P1;HPM_P2
2022/07/07 00:01:35;;;;;;;93.90;36.60;;;;;;;;;;5002684;28;20244;-53
2022/07/07 00:04:02;;;;;;;61.97;29.10;;;;;;;;;;4994054;28;20290;-53
2022/07/07 00:06:28;;;;;;;95.35;36.03;;;;;;;;;;4994302;28;20228;-53
2022/07/07 00:08:54;;;;;;;55.00;27.33;;;;;;;;;;4996932;28;20186;-53
2022/07/07 00:11:21;;;;;;;61.97;27.95;;;;;;;;;;4998014;28;20703;-53
2022/07/07 00:13:47;;;;;;;102.85;36.60;;;;;;;;;;4998536;28;20220;-53
2022/07/07 00:16:13;;;;;;;41.08;22.58;;;;;;;;;;5000006;28;20280;-53
2022/07/07 00:18:39;;;;;;;69.30;29.73;;;;;;;;;;4999189;28;20603;-53
2022/07/07 00:21:05;;;;;;;94.63;36.22;;;;;;;;;;5000114;28;20236;-53
2022/07/07 00:23:31;;;;;;;95.18;36.55;;;;;;;;;;5008892;28;20220;-53
2022/07/07 00:25:57;;;;;;;79.60;32.22;;;;;;;;;;4992603;28;20797;-53
2022/07/07 00:28:23;;;;;;;66.93;28.90;;;;;;;;;;4995508;28;20219;-53
2022/07/07 00:30:49;;;;;;;87.57;35.28;;;;;;;;;;5002678;28;20240;-53
2022/07/07 00:33:16;;;;;;;103.50;39.47;;;;;;;;;;4999743;28;20634;-53
2022/07/07 00:35:42;;;;;;;105.72;39.22;;;;;;;;;;4991932;28;21049;-53
2022/07/07 00:38:08;;;;;;;95.88;35.65;;;;;;;;;;4997032;28;20554;-54
2022/07/07 00:40:35;;;;;;;70.80;29.42;;;;;;;;;;4995283;28;20232;-53
2022/07/07 00:43:01;;;;;;;107.95;42.90;;;;;;;;;;5012546;28;20623;-53
2022/07/07 00:45:27;;;;;;;132.73;39.03;;;;;;;;;;4990542;28;20306;-53
2022/07/07 00:47:53;;;;;;;109.90;39.58;;;;;;;;;;5009530;28;20251;-53
2022/07/07 00:50:20;;;;;;;147.05;44.47;;;;;;;;;;4985811;28;20216;-50
2022/07/07 00:52:46;;;;;;;176.45;51.53;;;;;;;;;;4992962;28;20231;-51
2022/07/07 00:55:12;;;;;;;159.60;47.78;;;;;;;;;;4980698;28;20879;-51
2022/07/07 00:57:38;;;;;;;74.18;33.92;;;;;;;;;;4989914;28;20282;-50
2022/07/07 01:00:22;;;;;;;78.60;34.58;;;;;;;;;;4986090;28;20182;-50
2022/07/07 01:02:48;;;;;;;75.03;30.30;;;;;;;;;;4993776;28;20613;-51
2022/07/07 01:05:16;;;;;;;108.20;39.08;;;;;;;;;;4994556;28;20228;-50
2022/07/07 01:07:42;;;;;;;118.93;44.28;;;;;;;;;;4982780;28;20224;-51
2022/07/07 01:10:09;;;;;;;161.60;50.03;;;;;;;;;;4981581;28;20208;-51
2022/07/07 01:12:38;;;;;;;183.85;53.95;;;;;;;;;;4981851;28;20217;-50
2022/07/07 01:15:05;;;;;;;80.15;34.05;;;;;;;;;;4985670;28;21180;-50
2022/07/07 01:17:31;;;;;;;129.80;50.78;;;;;;;;;;4988317;28;20221;-51
2022/07/07 01:19:57;;;;;;;156.23;55.05;;;;;;;;;;4982184;28;20266;-50
2022/07/07 01:22:24;;;;;;;167.30;47.25;;;;;;;;;;4985678;28;20307;-50
2022/07/07 01:24:50;;;;;;;64.85;27.85;;;;;;;;;;4985579;28;20222;-51
2022/07/07 01:27:17;;;;;;;110.75;42.88;;;;;;;;;;4984927;28;20208;-51
2022/07/07 01:29:44;;;;;;;140.57;44.60;;;;;;;;;;4997780;28;20200;-52
2022/07/07 01:32:10;;;;;;;83.72;32.90;;;;;;;;;;4987495;28;20216;-52
2022/07/07 01:34:37;;;;;;;134.15;45.28;;;;;;;;;;4989842;28;20225;-51
2022/07/07 01:37:03;;;;;;;186.10;58.97;;;;;;;;;;4984827;28;20224;-51
2022/07/07 01:39:29;;;;;;;149.32;45.70;;;;;;;;;;4984100;28;20270;-52
2022/07/07 01:41:55;;;;;;;123.38;40.60;;;;;;;;;;4986009;28;21025;-52
2022/07/07 01:44:21;;;;;;;142.77;44.70;;;;;;;;;;4979091;28;20349;-52
2022/07/07 01:46:47;;;;;;;70.40;34.33;;;;;;;;;;4985125;28;20785;-51
2022/07/07 01:49:13;;;;;;;109.25;44.08;;;;;;;;;;4984697;28;20357;-52
2022/07/07 01:51:39;;;;;;;70.60;36.42;;;;;;;;;;4982387;28;20226;-52
2022/07/07 01:54:05;;;;;;;182.25;64.93;;;;;;;;;;4982585;28;20330;-52
2022/07/07 01:56:31;;;;;;;168.65;58.15;;;;;;;;;;4975570;28;20244;-52
2022/07/07 01:58:57;;;;;;;175.52;54.25;;;;;;;;;;4987878;28;20219;-52
2022/07/07 02:01:23;;;;;;;179.60;51.03;;;;;;;;;;4976671;28;20219;-52
2022/07/07 02:03:49;;;;;;;100.93;40.10;;;;;;;;;;4992263;28;20562;-52
2022/07/07 02:06:15;;;;;;;73.05;35.67;;;;;;;;;;4987915;28;20241;-52
2022/07/07 02:08:41;;;;;;;136.30;46.92;;;;;;;;;;4985078;28;20864;-52
2022/07/07 02:11:13;;;;;;;164.57;52.97;;;;;;;;;;4987402;28;20311;-51
2022/07/07 02:13:43;;;;;;;107.43;39.58;;;;;;;;;;4981422;28;20236;-52
2022/07/07 02:16:10;;;;;;;118.93;48.03;;;;;;;;;;4982970;28;20213;-52
2022/07/07 02:18:37;;;;;;;117.88;47.88;;;;;;;;;;4990389;28;20392;-52
2022/07/07 02:21:03;;;;;;;68.40;29.95;;;;;;;;;;4990331;28;20822;-52
2022/07/07 02:23:29;;;;;;;165.45;48.47;;;;;;;;;;4985059;28;20573;-52
2022/07/07 02:25:55;;;;;;;71.93;35.97;;;;;;;;;;4984148;28;20224;-51
2022/07/07 02:28:23;;;;;;;88.65;35.65;;;;;;;;;;4989314;28;20225;-51
2022/07/07 02:30:49;;;;;;;154.15;47.17;;;;;;;;;;4979619;28;20217;-52
2022/07/07 02:33:15;;;;;;;77.88;33.95;;;;;;;;;;4989312;28;20684;-52
2022/07/07 02:35:41;;;;;;;175.23;55.88;;;;;;;;;;5001135;28;20181;-51
2022/07/07 02:38:07;;;;;;;183.20;67.85;;;;;;;;;;4982266;28;20247;-52
2022/07/07 02:40:33;;;;;;;166.05;52.22;;;;;;;;;;4988659;28;20215;-52
2022/07/07 02:42:59;;;;;;;126.78;41.90;;;;;;;;;;4980936;28;20320;-52
2022/07/07 02:45:25;;;;;;;147.55;45.55;;;;;;;;;;4975595;28;20260;-52
2022/07/07 02:47:51;;;;;;;76.75;37.25;;;;;;;;;;4986179;28;20200;-52
2022/07/07 02:50:17;;;;;;;152.48;46.40;;;;;;;;;;4985988;28;20225;-52
2022/07/07 02:52:43;;;;;;;191.77;54.42;;;;;;;;;;4979990;28;20243;-52
2022/07/07 02:55:09;;;;;;;127.55;41.60;;;;;;;;;;4986942;28;20219;-52
2022/07/07 02:57:36;;;;;;;156.80;45.33;;;;;;;;;;4981956;28;20252;-52
2022/07/07 03:00:03;;;;;;;131.70;43.35;;;;;;;;;;4984333;28;20180;-51
2022/07/07 03:02:29;;;;;;;72.80;30.00;;;;;;;;;;4986999;28;20225;-52
2022/07/07 03:04:55;;;;;;;119.72;40.90;;;;;;;;;;4987580;28;20629;-52
2022/07/07 03:07:21;;;;;;;161.27;55.72;;;;;;;;;;4981373;28;20216;-52
2022/07/07 03:09:47;;;;;;;85.43;33.33;;;;;;;;;;4980785;28;20243;-52
2022/07/07 03:12:13;;;;;;;113.57;38.05;;;;;;;;;;4972814;28;20761;-53
2022/07/07 03:14:39;;;;;;;135.18;39.63;;;;;;;;;;4984674;28;20196;-52
2022/07/07 03:17:05;;;;;;;76.63;33.65;;;;;;;;;;4986129;28;20212;-52
2022/07/07 03:19:30;;;;;;;142.57;44.58;;;;;;;;;;4998849;28;20226;-52
2022/07/07 03:21:56;;;;;;;136.18;42.63;;;;;;;;;;4982149;28;20229;-52
2022/07/07 03:24:22;;;;;;;135.13;40.58;;;;;;;;;;4983154;28;20704;-52
2022/07/07 03:26:48;;;;;;;87.65;36.58;;;;;;;;;;4979522;28;20197;-52
2022/07/07 03:29:16;;;;;;;69.18;30.23;;;;;;;;;;4990595;28;20669;-52
2022/07/07 03:31:42;;;;;;;155.23;47.72;;;;;;;;;;4987371;28;20225;-51
2022/07/07 03:34:08;;;;;;;56.65;29.50;;;;;;;;;;4981112;28;20221;-52
2022/07/07 03:36:34;;;;;;;128.68;48.40;;;;;;;;;;4993017;28;20225;-52
2022/07/07 03:39:00;;;;;;;174.30;50.80;;;;;;;;;;4985280;28;20216;-51
2022/07/07 03:41:26;;;;;;;105.63;37.78;;;;;;;;;;4996038;28;20232;-51
2022/07/07 03:43:52;;;;;;;146.45;47.03;;;;;;;;;;4992901;28;20220;-52
2022/07/07 03:46:18;;;;;;;141.98;50.08;;;;;;;;;;4986910;28;20228;-52
2022/07/07 03:48:44;;;;;;;111.28;41.88;;;;;;;;;;4988701;28;20228;-51
2022/07/07 03:51:10;;;;;;;73.10;33.47;;;;;;;;;;4995446;28;21499;-51
2022/07/07 03:53:36;;;;;;;116.18;38.47;;;;;;;;;;4989648;28;20181;-51
2022/07/07 03:56:02;;;;;;;71.18;32.58;;;;;;;;;;4992828;28;20212;-51
2022/07/07 03:58:28;;;;;;;59.85;28.55;;;;;;;;;;4994162;28;20221;-51
2022/07/07 04:00:53;;;;;;;168.00;49.72;;;;;;;;;;4986659;28;20254;-52
2022/07/07 04:03:19;;;;;;;125.15;37.30;;;;;;;;;;4989315;28;20276;-52
2022/07/07 04:05:45;;;;;;;134.98;48.22;;;;;;;;;;4986642;28;20209;-51
2022/07/07 04:08:11;;;;;;;98.65;35.20;;;;;;;;;;4993909;28;21730;-52
2022/07/07 04:10:37;;;;;;;72.40;27.83;;;;;;;;;;4991121;28;20218;-52
2022/07/07 04:13:03;;;;;;;129.75;38.55;;;;;;;;;;4987469;28;20217;-52
2022/07/07 04:15:29;;;;;;;152.73;41.20;;;;;;;;;;4995731;28;20216;-52
2022/07/07 04:17:55;;;;;;;72.70;31.05;;;;;;;;;;4980857;28;20189;-51
2022/07/07 04:20:21;;;;;;;54.35;22.13;;;;;;;;;;4997098;28;20301;-52
2022/07/07 04:22:48;;;;;;;99.75;29.52;;;;;;;;;;4991453;28;20227;-52
2022/07/07 04:25:14;;;;;;;63.67;19.67;;;;;;;;;;4992506;28;20877;-52
2022/07/07 04:27:40;;;;;;;90.13;25.27;;;;;;;;;;4989419;28;20251;-52
2022/07/07 04:30:06;;;;;;;103.55;29.67;;;;;;;;;;4991463;28;20215;-50
2022/07/07 04:32:32;;;;;;;148.73;37.43;;;;;;;;;;4993957;28;20188;-52
2022/07/07 04:34:58;;;;;;;94.18;24.50;;;;;;;;;;4984385;28;20214;-52
2022/07/07 04:37:24;;;;;;;60.45;20.80;;;;;;;;;;4989129;28;20263;-52
2022/07/07 04:39:50;;;;;;;105.85;27.23;;;;;;;;;;4987978;28;20217;-51
2022/07/07 04:42:16;;;;;;;63.20;19.50;;;;;;;;;;4991397;28;20262;-52
2022/07/07 04:44:42;;;;;;;133.02;33.20;;;;;;;;;;4988284;28;20205;-51
2022/07/07 04:47:08;;;;;;;158.18;44.15;;;;;;;;;;4982023;28;20697;-51
2022/07/07 04:49:34;;;;;;;70.38;22.02;;;;;;;;;;4984375;28;20618;-52
2022/07/07 04:52:00;;;;;;;111.05;26.25;;;;;;;;;;5002821;28;20212;-52
2022/07/07 04:54:26;;;;;;;155.43;34.28;;;;;;;;;;4991007;28;20217;-51
2022/07/07 04:56:52;;;;;;;115.55;27.30;;;;;;;;;;4992664;28;20215;-52
2022/07/07 04:59:18;;;;;;;97.82;22.48;;;;;;;;;;4989964;28;20661;-51
2022/07/07 05:01:44;;;;;;;88.38;24.02;;;;;;;;;;4991203;28;20216;-52
2022/07/07 05:04:10;;;;;;;72.85;20.75;;;;;;;;;;5002325;28;20227;-52
2022/07/07 05:06:36;;;;;;;117.05;32.80;;;;;;;;;;4994803;28;20217;-52
2022/07/07 05:09:02;;;;;;;63.10;19.27;;;;;;;;;;4987900;28;20178;-51
2022/07/07 05:11:28;;;;;;;69.97;21.08;;;;;;;;;;4998333;28;20196;-52
2022/07/07 05:13:54;;;;;;;65.47;20.77;;;;;;;;;;4990669;28;20224;-52
2022/07/07 05:16:20;;;;;;;104.00;29.52;;;;;;;;;;4995019;28;20647;-52
2022/07/07 05:18:46;;;;;;;149.50;35.17;;;;;;;;;;4991941;28;20299;-52
2022/07/07 05:21:12;;;;;;;78.55;22.17;;;;;;;;;;4989142;28;20181;-53
2022/07/07 05:23:38;;;;;;;122.18;34.92;;;;;;;;;;4995042;28;20653;-53
2022/07/07 05:26:04;;;;;;;156.93;40.22;;;;;;;;;;4987963;28;20228;-53
2022/07/07 05:28:31;;;;;;;112.45;32.45;;;;;;;;;;4992717;28;20213;-53
2022/07/07 05:30:57;;;;;;;128.43;36.88;;;;;;;;;;4978049;28;20225;-53
2022/07/07 05:33:23;;;;;;;121.00;35.67;;;;;;;;;;4978180;28;20273;-54
2022/07/07 05:35:49;;;;;;;138.73;37.40;;;;;;;;;;4993580;28;20444;-53
2022/07/07 05:38:15;;;;;;;95.13;28.00;;;;;;;;;;4997739;28;20218;-54
2022/07/07 05:40:41;;;;;;;97.88;27.92;;;;;;;;;;4991852;28;20212;-54
2022/07/07 05:43:08;;;;;;;116.40;31.55;;;;;;;;;;5001880;28;20558;-53
2022/07/07 05:45:34;;;;;;;126.32;36.13;;;;;;;;;;4986171;28;20240;-53
2022/07/07 05:47:59;;;;;;;337.85;90.50;;;;;;;;;;4986381;28;20190;-53
2022/07/07 05:50:25;;;;;;;45.00;13.75;;;;;;;;;;4992824;28;20220;-53
2022/07/07 05:52:51;;;;;;;86.47;24.77;;;;;;;;;;4990740;28;20245;-53
2022/07/07 05:55:17;;;;;;;130.75;35.17;;;;;;;;;;4987003;28;20216;-53
2022/07/07 05:57:43;;;;;;;62.83;19.85;;;;;;;;;;4985133;28;20217;-53
2022/07/07 06:00:10;;;;;;;129.93;36.10;;;;;;;;;;4988683;28;20372;-53
2022/07/07 06:02:36;;;;;;;116.72;31.33;;;;;;;;;;4987995;28;20282;-53
2022/07/07 06:05:02;;;;;;;74.85;24.35;;;;;;;;;;4989186;28;20260;-52
2022/07/07 06:07:28;;;;;;;103.82;29.67;;;;;;;;;;4981079;28;20229;-52
2022/07/07 06:09:54;;;;;;;107.90;27.27;;;;;;;;;;4983542;28;20216;-52
2022/07/07 06:12:21;;;;;;;172.43;37.28;;;;;;;;;;4991944;28;20221;-52
2022/07/07 06:14:47;;;;;;;88.95;23.52;;;;;;;;;;4990287;28;20177;-52
2022/07/07 06:17:13;;;;;;;236.05;51.80;;;;;;;;;;4983064;28;20228;-49
2022/07/07 06:19:39;;;;;;;334.63;70.70;;;;;;;;;;4973007;28;21285;-49
2022/07/07 06:22:05;;;;;;;218.93;45.78;;;;;;;;;;4974452;28;20261;-49
2022/07/07 06:24:31;;;;;;;197.98;44.53;;;;;;;;;;4985762;28;20715;-49
2022/07/07 06:26:57;;;;;;;216.55;47.78;;;;;;;;;;4974873;28;20645;-49
2022/07/07 06:29:23;;;;;;;238.57;50.92;;;;;;;;;;4983481;28;20227;-49
2022/07/07 06:31:49;;;;;;;65.80;18.45;;;;;;;;;;4987361;28;20214;-49
2022/07/07 06:34:15;;;;;;;234.00;48.10;;;;;;;;;;4982385;28;20223;-52
2022/07/07 06:36:41;;;;;;;115.20;28.85;;;;;;;;;;4976918;28;20248;-52
2022/07/07 06:39:07;;;;;;;275.70;57.90;;;;;;;;;;4971080;28;20287;-52
2022/07/07 06:41:34;;;;;;;248.77;51.30;;;;;;;;;;4981336;28;20185;-53
2022/07/07 06:44:00;;;;;;;184.55;42.53;;;;;;;;;;4983668;28;20213;-53
2022/07/07 06:46:26;;;;;;;157.63;36.33;;;;;;;;;;4971853;28;20362;-52
2022/07/07 06:48:52;;;;;;;209.68;45.03;;;;;;;;;;4975813;28;20220;-52
2022/07/07 06:51:18;;;;;;;284.20;59.53;;;;;;;;;;4973991;28;20184;-53
2022/07/07 06:53:44;;;;;;;201.32;41.10;;;;;;;;;;4973716;28;22428;-52
2022/07/07 06:56:10;;;;;;;90.85;25.33;;;;;;;;;;4985316;28;20251;-53
2022/07/07 06:58:35;;;;;;;141.68;34.28;;;;;;;;;;4978512;28;20213;-52
2022/07/07 07:01:01;;;;;;;180.90;39.30;;;;;;;;;;4970474;28;20251;-52
2022/07/07 07:03:27;;;;;;;210.43;44.85;;;;;;;;;;4976907;28;20331;-52
2022/07/07 07:05:54;;;;;;;84.80;25.60;;;;;;;;;;4985658;28;20249;-52
2022/07/07 07:08:19;;;;;;;229.05;51.65;;;;;;;;;;4983943;28;20254;-52
2022/07/07 07:10:45;;;;;;;110.18;38.65;;;;;;;;;;4971399;28;21075;-50
2022/07/07 07:13:11;;;;;;;202.65;78.60;;;;;;;;;;4981716;28;20213;-50
2022/07/07 07:15:39;;;;;;;161.68;78.20;;;;;;;;;;4987817;28;20217;-49
2022/07/07 07:18:05;;;;;;;150.82;44.53;;;;;;;;;;4995619;28;20236;-49
2022/07/07 07:20:31;;;;;;;95.57;31.77;;;;;;;;;;4991340;28;20224;-49
2022/07/07 07:22:57;;;;;;;115.68;38.70;;;;;;;;;;4990848;28;20214;-49
2022/07/07 07:25:23;;;;;;;79.85;28.75;;;;;;;;;;4994201;28;20228;-51
2022/07/07 07:27:49;;;;;;;77.40;27.05;;;;;;;;;;4992658;28;20221;-51
2022/07/07 07:30:15;;;;;;;190.82;51.75;;;;;;;;;;4986841;28;20928;-52
2022/07/07 07:32:41;;;;;;;158.38;54.05;;;;;;;;;;4985613;28;20732;-52
2022/07/07 07:35:07;;;;;;;167.23;44.08;;;;;;;;;;4982923;28;21008;-52
2022/07/07 07:37:33;;;;;;;86.85;35.25;;;;;;;;;;4995136;28;20216;-52
2022/07/07 07:39:59;;;;;;;153.13;44.80;;;;;;;;;;4990644;28;20301;-52
2022/07/07 07:42:25;;;;;;;283.20;72.88;;;;;;;;;;4987362;28;20670;-52
2022/07/07 07:45:09;;;;;;;264.88;68.60;;;;;;;;;;4975819;28;20208;-51
2022/07/07 07:47:40;;;;;;;64.28;21.35;;;;;;;;;;4984328;28;20224;-51
2022/07/07 07:50:07;;;;;;;125.63;34.45;;;;;;;;;;4979845;28;20225;-51
2022/07/07 07:52:33;;;;;;;175.52;47.33;;;;;;;;;;4982857;28;20909;-51
2022/07/07 07:54:59;;;;;;;125.75;34.53;;;;;;;;;;4991302;28;20300;-52
2022/07/07 07:57:24;;;;;;;156.77;40.35;;;;;;;;;;4987581;28;20229;-51
2022/07/07 07:59:50;;;;;;;70.38;22.92;;;;;;;;;;4991815;28;20204;-52
2022/07/07 08:02:16;;;;;;;152.27;41.05;;;;;;;;;;4987686;28;20312;-51
2022/07/07 08:04:42;;;;;;;69.00;22.52;;;;;;;;;;4986926;28;20222;-51
2022/07/07 08:07:08;;;;;;;54.42;18.73;;;;;;;;;;4996342;28;20220;-51
2022/07/07 08:09:34;;;;;;;168.07;44.60;;;;;;;;;;4990008;28;20281;-51
2022/07/07 08:12:00;;;;;;;122.20;32.97;;;;;;;;;;4984919;28;20592;-51
2022/07/07 08:14:26;;;;;;;93.07;28.35;;;;;;;;;;4989326;28;20192;-52
2022/07/07 08:16:52;;;;;;;116.43;32.53;;;;;;;;;;4985470;28;20220;-52
2022/07/07 08:19:19;;;;;;;143.90;38.33;;;;;;;;;;4984725;28;20221;-51
2022/07/07 08:21:48;;;;;;;78.40;24.67;;;;;;;;;;4991719;28;20217;-51
2022/07/07 08:24:15;;;;;;;111.47;32.10;;;;;;;;;;4989176;28;20181;-51
2022/07/07 08:26:41;;;;;;;116.28;33.67;;;;;;;;;;4985999;28;20213;-52
2022/07/07 08:29:07;;;;;;;120.57;33.55;;;;;;;;;;4983791;28;20242;-51
2022/07/07 08:31:33;;;;;;;155.68;40.88;;;;;;;;;;4983575;28;20217;-51
2022/07/07 08:33:59;;;;;;;84.03;25.23;;;;;;;;;;5000196;28;20220;-51
2022/07/07 08:36:25;;;;;;;191.77;49.50;;;;;;;;;;4977942;28;21052;-51
2022/07/07 08:38:51;;;;;;;138.07;31.85;;;;;;;;;;4984876;28;20178;-51
2022/07/07 08:41:17;;;;;;;97.70;22.05;;;;;;;;;;4990096;28;20220;-51
2022/07/07 08:43:43;;;;;;;133.27;31.80;;;;;;;;;;4986716;28;20221;-51
2022/07/07 08:46:09;;;;;;;198.38;40.88;;;;;;;;;;5001028;28;20229;-51
2022/07/07 08:48:36;;;;;;;124.13;28.48;;;;;;;;;;4988503;28;20221;-51
2022/07/07 08:51:02;;;;;;;78.85;22.02;;;;;;;;;;4990473;28;20189;-51
2022/07/07 08:53:29;;;;;;;168.20;35.75;;;;;;;;;;4984254;28;20751;-51
2022/07/07 08:55:56;;;;;;;133.38;34.50;;;;;;;;;;4984139;28;20213;-52
2022/07/07 08:58:22;;;;;;;142.63;32.20;;;;;;;;;;4981788;28;20319;-52
2022/07/07 09:00:48;;;;;;;278.38;60.65;;;;;;;;;;4981537;28;20657;-51
2022/07/07 09:03:14;;;;;;;90.72;26.58;;;;;;;;;;4989313;28;20179;-52
2022/07/07 09:05:40;;;;;;;156.35;39.40;;;;;;;;;;4995067;28;20244;-52
2022/07/07 09:08:33;;;;;;;98.82;31.70;;;;;;;;;;5006800;28;20356;-52
2022/07/07 09:10:59;;;;;;;209.88;49.45;;;;;;;;;;4977935;28;20208;-52
2022/07/07 09:13:32;;;;;;;177.30;45.17;;;;;;;;;;4985377;28;20300;-52
2022/07/07 09:16:02;;;;;;;116.95;37.00;;;;;;;;;;4979534;28;20641;-53
2022/07/07 09:18:28;;;;;;;199.45;55.03;;;;;;;;;;4982970;28;20546;-53
2022/07/07 09:20:54;;;;;;;112.03;36.08;;;;;;;;;;4986740;28;20236;-53
2022/07/07 09:23:20;;;;;;;95.97;31.98;;;;;;;;;;4990244;28;20705;-53
2022/07/07 09:25:46;;;;;;;120.47;37.63;;;;;;;;;;4996428;28;20217;-53
2022/07/07 09:28:12;;;;;;;77.63;29.80;;;;;;;;;;4992634;28;20624;-53
2022/07/07 09:30:38;;;;;;;192.98;57.33;;;;;;;;;;4990910;28;20224;-53
2022/07/07 09:33:13;;;;;;;84.97;31.67;;;;;;;;;;4999757;28;20186;-53
2022/07/07 09:38:27;;;;;;;73.45;28.27;;;;;;;;;;4992108;28;20227;-53
2022/07/07 09:40:59;;;;;;;64.00;27.90;;;;;;;;;;4985822;28;20361;-53
2022/07/07 09:43:25;;;;;;;127.30;39.35;;;;;;;;;;5002161;28;20637;-53
2022/07/07 09:46:10;;;;;;;105.72;34.80;;;;;;;;;;4995273;28;20225;-53
2022/07/07 09:48:37;;;;;;;158.35;49.28;;;;;;;;;;4989211;28;20621;-53
2022/07/07 09:51:18;;;;;;;82.88;30.30;;;;;;;;;;4996209;28;20189;-53
2022/07/07 09:53:56;;;;;;;58.72;24.33;;;;;;;;;;4994043;28;20182;-53
2022/07/07 09:56:23;;;;;;;146.35;45.42;;;;;;;;;;4989794;28;20224;-53
2022/07/07 09:58:49;;;;;;;84.00;28.58;;;;;;;;;;4987296;28;20213;-53
2022/07/07 10:01:17;;;;;;;137.30;40.47;;;;;;;;;;4987330;28;20477;-53
2022/07/07 10:03:43;;;;;;;155.95;50.13;;;;;;;;;;4993094;28;20228;-53
2022/07/07 10:06:10;;;;;;;58.28;23.02;;;;;;;;;;4995093;28;20618;-53
2022/07/07 10:08:40;;;;;;;74.07;26.55;;;;;;;;;;4997423;28;20227;-53
2022/07/07 10:11:07;;;;;;;63.03;24.67;;;;;;;;;;4994616;28;20244;-53
2022/07/07 10:13:35;;;;;;;138.55;41.25;;;;;;;;;;4997055;28;20218;-53
2022/07/07 10:16:01;;;;;;;113.32;36.38;;;;;;;;;;4991207;28;20781;-53
2022/07/07 10:18:27;;;;;;;107.30;33.22;;;;;;;;;;4992652;28;20219;-53
2022/07/07 10:20:53;;;;;;;96.93;34.90;;;;;;;;;;4989607;28;20569;-53
2022/07/07 10:23:19;;;;;;;100.43;33.63;;;;;;;;;;4985587;28;20264;-53
2022/07/07 10:25:59;;;;;;;106.97;38.88;;;;;;;;;;4987269;28;20221;-53
2022/07/07 10:28:45;;;;;;;61.22;25.23;;;;;;;;;;4993416;28;20209;-53
2022/07/07 10:31:20;;;;;;;73.50;28.98;;;;;;;;;;4991717;28;20689;-53
2022/07/07 10:34:05;;;;;;;138.48;44.67;;;;;;;;;;4987522;28;20214;-53
2022/07/07 10:36:50;;;;;;;122.47;42.83;;;;;;;;;;4990952;28;20225;-53
2022/07/07 10:39:17;;;;;;;81.00;34.00;;;;;;;;;;4993148;28;20190;-53
2022/07/07 10:41:59;;;;;;;88.30;61.15;;;;;;;;;;4992423;28;20228;-53
2022/07/07 10:44:27;;;;;;;97.93;68.32;;;;;;;;;;4992420;28;20524;-53
2022/07/07 10:47:00;;;;;;;149.63;87.68;;;;;;;;;;4989851;28;20218;-53
2022/07/07 10:49:39;;;;;;;73.63;64.95;;;;;;;;;;5005477;28;20223;-53
2022/07/07 10:52:10;;;;;;;144.00;84.75;;;;;;;;;;4994702;28;20217;-53
2022/07/07 10:54:38;;;;;;;191.45;95.72;;;;;;;;;;4981410;28;20689;-53
2022/07/07 10:57:05;;;;;;;219.23;91.47;;;;;;;;;;4976181;28;20208;-53
2022/07/07 10:59:51;;;;;;;227.38;93.38;;;;;;;;;;4983250;28;20204;-53
2022/07/07 11:02:17;;;;;;;161.23;43.17;;;;;;;;;;4974871;28;20217;-53
2022/07/07 11:04:43;;;;;;;127.47;34.65;;;;;;;;;;4978732;28;20690;-53
2022/07/07 11:07:18;;;;;;;140.82;52.63;;;;;;;;;;4977980;28;20281;-53
2022/07/07 11:10:00;;;;;;;253.27;75.60;;;;;;;;;;4987709;28;20213;-53
2022/07/07 11:12:38;;;;;;;92.70;33.67;;;;;;;;;;4995643;28;20228;-53
2022/07/07 11:15:16;;;;;;;136.30;40.75;;;;;;;;;;4991744;28;20311;-53
2022/07/07 11:17:43;;;;;;;137.60;46.95;;;;;;;;;;4993484;28;20207;-53
2022/07/07 11:20:18;;;;;;;105.88;40.17;;;;;;;;;;4990139;28;20225;-53
2022/07/07 11:22:48;;;;;;;57.22;24.70;;;;;;;;;;4990591;28;20262;-53
2022/07/07 11:25:16;;;;;;;320.35;70.57;;;;;;;;;;4983741;28;20324;-53
2022/07/07 11:27:42;;;;;;;230.88;58.42;;;;;;;;;;4988492;28;20224;-53
2022/07/07 11:30:08;;;;;;;81.10;29.83;;;;;;;;;;4988243;28;20720;-53
2022/07/07 11:32:42;;;;;;;65.75;29.75;;;;;;;;;;4991541;28;20177;-53
2022/07/07 11:35:08;;;;;;;143.27;37.40;;;;;;;;;;4984698;28;20225;-53
2022/07/07 11:37:37;;;;;;;88.65;32.22;;;;;;;;;;4985442;28;20221;-53
2022/07/07 11:40:04;;;;;;;128.23;32.95;;;;;;;;;;4988905;28;20682;-53
2022/07/07 11:42:36;;;;;;;152.65;41.28;;;;;;;;;;4988613;28;20300;-53
2022/07/07 11:45:02;;;;;;;183.15;44.22;;;;;;;;;;4978174;28;20203;-53
2022/07/07 11:47:33;;;;;;;136.43;43.13;;;;;;;;;;4979039;28;20236;-53
2022/07/07 11:49:58;;;;;;;87.07;28.55;;;;;;;;;;4992610;28;20217;-53
2022/07/07 11:52:25;;;;;;;149.43;39.05;;;;;;;;;;4982804;28;20221;-53
2022/07/07 11:54:51;;;;;;;286.70;66.20;;;;;;;;;;4982964;28;20259;-54
2022/07/07 11:57:26;;;;;;;191.07;49.85;;;;;;;;;;4981968;28;20212;-53
2022/07/07 11:59:52;;;;;;;163.80;42.17;;;;;;;;;;4982802;28;20193;-53
2022/07/07 12:02:19;;;;;;;115.03;32.90;;;;;;;;;;4987178;28;20216;-54
2022/07/07 12:04:45;;;;;;;92.45;31.83;;;;;;;;;;5004393;28;20578;-55
2022/07/07 12:07:11;;;;;;;158.20;50.33;;;;;;;;;;4987511;28;20224;-54
2022/07/07 12:09:37;;;;;;;113.15;38.97;;;;;;;;;;4980931;28;20595;-53
2022/07/07 12:12:03;;;;;;;136.32;44.55;;;;;;;;;;4987976;28;20618;-54
2022/07/07 12:14:31;;;;;;;178.60;48.97;;;;;;;;;;4985897;28;20185;-54
2022/07/07 12:16:57;;;;;;;157.98;54.13;;;;;;;;;;4977459;28;20217;-54
2022/07/07 12:19:23;;;;;;;150.88;44.17;;;;;;;;;;4988431;28;20223;-54
2022/07/07 12:21:50;;;;;;;225.15;54.42;;;;;;;;;;4979581;28;20719;-54
2022/07/07 12:24:17;;;;;;;200.68;52.13;;;;;;;;;;4996832;28;20536;-54
2022/07/07 12:26:46;;;;;;;193.77;59.08;;;;;;;;;;4989496;28;20217;-54
2022/07/07 12:29:12;;;;;;;133.90;40.90;;;;;;;;;;4983512;28;20267;-54
2022/07/07 12:31:38;;;;;;;207.90;52.22;;;;;;;;;;4978990;28;20222;-54
2022/07/07 12:34:14;;;;;;;327.42;78.00;;;;;;;;;;4979291;28;20323;-54
2022/07/07 12:36:41;;;;;;;145.30;49.28;;;;;;;;;;4980469;28;20319;-54
2022/07/07 12:39:07;;;;;;;292.77;74.30;;;;;;;;;;4982376;28;20181;-54
2022/07/07 12:41:34;;;;;;;271.67;64.40;;;;;;;;;;4975463;28;20633;-54
2022/07/07 12:44:13;;;;;;;108.63;37.20;;;;;;;;;;4977424;28;20210;-54
2022/07/07 12:46:39;;;;;;;222.82;66.72;;;;;;;;;;4972180;28;20482;-54
2022/07/07 12:49:06;;;;;;;217.18;61.55;;;;;;;;;;4989027;28;20220;-54
2022/07/07 12:51:32;;;;;;;215.52;72.68;;;;;;;;;;4984339;28;20221;-54
2022/07/07 12:53:58;;;;;;;147.85;56.88;;;;;;;;;;4983789;28;20741;-54
2022/07/07 12:56:31;;;;;;;113.47;61.88;;;;;;;;;;4992367;28;20315;-54
2022/07/07 12:58:57;;;;;;;122.45;58.90;;;;;;;;;;4989655;28;20209;-54
2022/07/07 13:01:24;;;;;;;176.07;63.95;;;;;;;;;;4985965;28;20216;-54
2022/07/07 13:03:51;;;;;;;101.82;48.78;;;;;;;;;;4988861;28;20220;-54
2022/07/07 13:06:18;;;;;;;215.45;85.85;;;;;;;;;;4984766;28;20225;-54
2022/07/07 13:08:45;;;;;;;89.55;53.38;;;;;;;;;;4992904;28;20204;-54
2022/07/07 13:11:11;;;;;;;207.43;81.22;;;;;;;;;;4991493;28;20213;-54
2022/07/07 13:13:38;;;;;;;212.13;77.20;;;;;;;;;;4983319;28;20212;-54
2022/07/07 13:16:04;;;;;;;156.55;66.35;;;;;;;;;;4981840;28;20217;-54
2022/07/07 13:18:30;;;;;;;76.40;43.80;;;;;;;;;;4991684;28;20535;-54
2022/07/07 13:21:00;;;;;;;106.15;50.83;;;;;;;;;;4981548;28;20697;-54
2022/07/07 13:23:28;;;;;;;168.93;64.65;;;;;;;;;;4974490;28;20216;-54
2022/07/07 13:25:53;;;;;;;148.40;69.30;;;;;;;;;;4985837;28;20733;-54
2022/07/07 13:28:19;;;;;;;161.18;76.60;;;;;;;;;;4980656;28;20275;-54
2022/07/07 13:30:45;;;;;;;239.60;81.38;;;;;;;;;;4983799;28;20247;-54
2022/07/07 13:33:11;;;;;;;218.85;79.00;;;;;;;;;;4977991;28;20936;-55
2022/07/07 13:35:37;;;;;;;275.08;100.10;;;;;;;;;;4980119;28;20193;-55
2022/07/07 13:38:03;;;;;;;248.65;100.80;;;;;;;;;;4986253;28;20220;-54
2022/07/07 13:40:30;;;;;;;71.63;64.43;;;;;;;;;;5008982;28;20252;-52
2022/07/07 13:42:56;;;;;;;100.40;89.60;;;;;;;;;;5009625;28;20217;-53
2022/07/07 13:45:22;;;;;;;178.90;92.85;;;;;;;;;;4993935;28;20225;-54
2022/07/07 13:47:48;;;;;;;183.20;117.22;;;;;;;;;;4978582;28;20704;-54
2022/07/07 13:50:14;;;;;;;318.35;155.25;;;;;;;;;;4966901;28;20208;-55
2022/07/07 13:52:40;;;;;;;128.32;114.32;;;;;;;;;;4989437;28;20220;-53
2022/07/07 13:55:06;;;;;;;153.02;125.93;;;;;;;;;;5009122;28;20216;-52
2022/07/07 13:57:33;;;;;;;145.70;129.93;;;;;;;;;;5006755;28;20287;-53
2022/07/07 14:00:03;;;;;;;144.77;129.77;;;;;;;;;;5009501;28;20211;-52
2022/07/07 14:02:29;;;;;;;148.18;131.85;;;;;;;;;;5008563;28;20217;-53
2022/07/07 14:04:55;;;;;;;152.57;136.40;;;;;;;;;;5008884;28;20231;-52
2022/07/07 14:07:23;;;;;;;144.77;128.98;;;;;;;;;;5008609;28;20248;-53
2022/07/07 14:09:49;;;;;;;274.33;161.23;;;;;;;;;;4973310;28;20686;-54
2022/07/07 14:12:15;;;;;;;257.63;157.80;;;;;;;;;;4978916;28;20268;-54